sensor_id;sensor_type;location;lat;lon;timestamp;temperature;humidity
19928;DHT22;10126;50.876;4.470;2022-07-04T00:00:55;16.30;99.90
19928;DHT22;10126;50.876;4.470;2022-07-04T00:02:56;16.30;99.90
19928;DHT22;10126;50.876;4.470;2022-07-04T00:04:57;16.30;99.90
19928;DHT22;10126;50.876;4.470;2022-07-04T00:06:57;16.30;99.90
19928;DHT22;10126;50.876;4.470;2022-07-04T00:08:58;16.30;99.90
19928;DHT22;10126;50.876;4.470;2022-07-04T00:10:58;16.20;99.90
19928;DHT22;10126;50.876;4.470;2022-07-04T00:12:59;16.20;99.90
19928;DHT22;10126;50.876;4.470;2022-07-04T00:15:01;16.30;99.90
19928;DHT22;10126;50.876;4.470;2022-07-04T00:17:01;16.20;99.90
19928;DHT22;10126;50.876;4.470;2022-07-04T00:19:02;16.20;99.90
19928;DHT22;10126;50.876;4.470;2022-07-04T00:21:03;16.10;99.90
19928;DHT22;10126;50.876;4.470;2022-07-04T00:23:03;16.20;99.90
19928;DHT22;10126;50.876;4.470;2022-07-04T00:25:05;16.20;99.90
19928;DHT22;10126;50.876;4.470;2022-07-04T00:27:06;16.10;99.90
19928;DHT22;10126;50.876;4.470;2022-07-04T00:29:07;16.00;99.90
19928;DHT22;10126;50.876;4.470;2022-07-04T00:31:07;15.90;99.90
19928;DHT22;10126;50.876;4.470;2022-07-04T00:33:12;16.00;99.90
19928;DHT22;10126;50.876;4.470;2022-07-04T00:35:13;16.00;99.90
19928;DHT22;10126;50.876;4.470;2022-07-04T00:37:13;16.10;99.90
19928;DHT22;10126;50.876;4.470;2022-07-04T00:39:14;16.00;99.90
19928;DHT22;10126;50.876;4.470;2022-07-04T00:41:15;16.00;99.90
19928;DHT22;10126;50.876;4.470;2022-07-04T00:43:23;16.00;99.90
19928;DHT22;10126;50.876;4.470;2022-07-04T00:45:24;16.00;99.90
19928;DHT22;10126;50.876;4.470;2022-07-04T00:47:25;16.00;99.90
19928;DHT22;10126;50.876;4.470;2022-07-04T00:49:25;16.00;99.90
19928;DHT22;10126;50.876;4.470;2022-07-04T00:51:29;15.80;99.90
19928;DHT22;10126;50.876;4.470;2022-07-04T00:53:30;15.80;99.90
19928;DHT22;10126;50.876;4.470;2022-07-04T00:55:31;15.70;99.90
19928;DHT22;10126;50.876;4.470;2022-07-04T00:57:33;15.80;99.90
19928;DHT22;10126;50.876;4.470;2022-07-04T00:59:34;15.80;99.90
19928;DHT22;10126;50.876;4.470;2022-07-04T01:01:35;15.80;99.90
19928;DHT22;10126;50.876;4.470;2022-07-04T01:03:36;15.80;99.90
19928;DHT22;10126;50.876;4.470;2022-07-04T01:05:38;15.70;99.90
19928;DHT22;10126;50.876;4.470;2022-07-04T01:07:41;15.70;99.90
19928;DHT22;10126;50.876;4.470;2022-07-04T01:09:42;15.70;99.90
19928;DHT22;10126;50.876;4.470;2022-07-04T01:11:43;15.80;99.90
19928;DHT22;10126;50.876;4.470;2022-07-04T01:13:44;15.60;99.90
19928;DHT22;10126;50.876;4.470;2022-07-04T01:15:44;15.60;99.90
19928;DHT22;10126;50.876;4.470;2022-07-04T01:17:45;15.80;99.90
19928;DHT22;10126;50.876;4.470;2022-07-04T01:19:46;15.80;99.90
19928;DHT22;10126;50.876;4.470;2022-07-04T01:21:46;15.70;99.90
19928;DHT22;10126;50.876;4.470;2022-07-04T01:23:48;15.70;99.90
19928;DHT22;10126;50.876;4.470;2022-07-04T01:25:48;15.50;99.90
19928;DHT22;10126;50.876;4.470;2022-07-04T01:27:50;15.50;99.90
19928;DHT22;10126;50.876;4.470;2022-07-04T01:29:51;15.50;99.90
19928;DHT22;10126;50.876;4.470;2022-07-04T01:31:51;15.50;99.90
19928;DHT22;10126;50.876;4.470;2022-07-04T01:33:53;15.40;99.90
19928;DHT22;10126;50.876;4.470;2022-07-04T01:35:54;15.30;99.90
19928;DHT22;10126;50.876;4.470;2022-07-04T01:37:55;15.30;99.90
19928;DHT22;10126;50.876;4.470;2022-07-04T01:39:56;15.30;99.90
19928;DHT22;10126;50.876;4.470;2022-07-04T01:41:57;15.20;99.90
19928;DHT22;10126;50.876;4.470;2022-07-04T01:43:57;15.20;99.90
19928;DHT22;10126;50.876;4.470;2022-07-04T01:45:58;15.10;99.90
19928;DHT22;10126;50.876;4.470;2022-07-04T01:47:58;15.10;99.90
19928;DHT22;10126;50.876;4.470;2022-07-04T01:49:59;15.20;99.90
19928;DHT22;10126;50.876;4.470;2022-07-04T01:52:00;15.20;99.90
19928;DHT22;10126;50.876;4.470;2022-07-04T01:54:00;15.20;99.90
19928;DHT22;10126;50.876;4.470;2022-07-04T01:56:01;15.10;99.90
19928;DHT22;10126;50.876;4.470;2022-07-04T01:58:02;15.00;99.90
19928;DHT22;10126;50.876;4.470;2022-07-04T02:00:07;14.90;99.90
19928;DHT22;10126;50.876;4.470;2022-07-04T02:02:27;14.90;99.90
19928;DHT22;10126;50.876;4.470;2022-07-04T02:04:28;14.90;99.90
19928;DHT22;10126;50.876;4.470;2022-07-04T02:06:29;14.90;99.90
19928;DHT22;10126;50.876;4.470;2022-07-04T02:08:29;15.00;99.90
19928;DHT22;10126;50.876;4.470;2022-07-04T02:10:50;14.90;99.90
19928;DHT22;10126;50.876;4.470;2022-07-04T02:12:50;14.90;99.90
19928;DHT22;10126;50.876;4.470;2022-07-04T02:15:04;14.90;99.90
19928;DHT22;10126;50.876;4.470;2022-07-04T02:17:05;14.80;99.90
19928;DHT22;10126;50.876;4.470;2022-07-04T02:19:05;14.90;99.90
19928;DHT22;10126;50.876;4.470;2022-07-04T02:21:06;14.90;99.90
19928;DHT22;10126;50.876;4.470;2022-07-04T02:23:07;14.90;99.90
19928;DHT22;10126;50.876;4.470;2022-07-04T02:25:07;14.90;99.90
19928;DHT22;10126;50.876;4.470;2022-07-04T02:27:08;14.90;99.90
19928;DHT22;10126;50.876;4.470;2022-07-04T02:29:10;14.90;99.90
19928;DHT22;10126;50.876;4.470;2022-07-04T02:31:10;14.80;99.90
19928;DHT22;10126;50.876;4.470;2022-07-04T02:33:11;14.60;99.90
19928;DHT22;10126;50.876;4.470;2022-07-04T02:35:14;14.60;99.90
19928;DHT22;10126;50.876;4.470;2022-07-04T02:37:16;14.60;99.90
19928;DHT22;10126;50.876;4.470;2022-07-04T02:39:17;14.60;99.90
19928;DHT22;10126;50.876;4.470;2022-07-04T02:41:17;14.70;99.90
19928;DHT22;10126;50.876;4.470;2022-07-04T02:43:18;14.60;99.90
19928;DHT22;10126;50.876;4.470;2022-07-04T02:45:19;14.60;99.90
19928;DHT22;10126;50.876;4.470;2022-07-04T02:47:19;14.60;99.90
19928;DHT22;10126;50.876;4.470;2022-07-04T02:49:20;14.60;99.90
19928;DHT22;10126;50.876;4.470;2022-07-04T02:51:21;14.50;99.90
19928;DHT22;10126;50.876;4.470;2022-07-04T02:53:21;14.60;99.90
19928;DHT22;10126;50.876;4.470;2022-07-04T02:55:22;14.60;99.90
19928;DHT22;10126;50.876;4.470;2022-07-04T02:57:23;14.60;99.90
19928;DHT22;10126;50.876;4.470;2022-07-04T02:59:23;14.60;99.90
19928;DHT22;10126;50.876;4.470;2022-07-04T03:01:24;14.50;99.90
19928;DHT22;10126;50.876;4.470;2022-07-04T03:03:25;14.40;99.90
19928;DHT22;10126;50.876;4.470;2022-07-04T03:05:25;14.40;99.90
19928;DHT22;10126;50.876;4.470;2022-07-04T03:07:28;14.40;99.90
19928;DHT22;10126;50.876;4.470;2022-07-04T03:09:29;14.40;99.90
19928;DHT22;10126;50.876;4.470;2022-07-04T03:11:30;14.40;99.90
19928;DHT22;10126;50.876;4.470;2022-07-04T03:13:30;14.50;99.90
19928;DHT22;10126;50.876;4.470;2022-07-04T03:15:31;14.50;99.90
19928;DHT22;10126;50.876;4.470;2022-07-04T03:17:32;14.50;99.90
19928;DHT22;10126;50.876;4.470;2022-07-04T03:19:33;14.50;99.90
19928;DHT22;10126;50.876;4.470;2022-07-04T03:21:33;14.40;99.90
19928;DHT22;10126;50.876;4.470;2022-07-04T03:23:34;14.40;99.90
19928;DHT22;10126;50.876;4.470;2022-07-04T03:25:35;14.50;99.90
19928;DHT22;10126;50.876;4.470;2022-07-04T03:27:36;14.50;99.90
19928;DHT22;10126;50.876;4.470;2022-07-04T03:29:36;14.50;99.90
19928;DHT22;10126;50.876;4.470;2022-07-04T03:31:37;14.50;99.90
19928;DHT22;10126;50.876;4.470;2022-07-04T03:33:37;14.40;99.90
19928;DHT22;10126;50.876;4.470;2022-07-04T03:35:38;14.40;99.90
19928;DHT22;10126;50.876;4.470;2022-07-04T03:37:39;14.50;99.90
19928;DHT22;10126;50.876;4.470;2022-07-04T03:39:40;14.50;99.90
19928;DHT22;10126;50.876;4.470;2022-07-04T03:41:40;14.50;99.90
19928;DHT22;10126;50.876;4.470;2022-07-04T03:43:41;14.50;99.90
19928;DHT22;10126;50.876;4.470;2022-07-04T03:45:42;14.50;99.90
19928;DHT22;10126;50.876;4.470;2022-07-04T03:47:42;14.40;99.90
19928;DHT22;10126;50.876;4.470;2022-07-04T03:49:43;14.60;99.90
19928;DHT22;10126;50.876;4.470;2022-07-04T03:51:43;14.60;99.90
19928;DHT22;10126;50.876;4.470;2022-07-04T03:53:44;14.60;99.90
19928;DHT22;10126;50.876;4.470;2022-07-04T03:55:45;14.50;99.90
19928;DHT22;10126;50.876;4.470;2022-07-04T03:57:46;14.60;99.90
19928;DHT22;10126;50.876;4.470;2022-07-04T03:59:47;14.60;99.90
19928;DHT22;10126;50.876;4.470;2022-07-04T04:01:47;14.70;99.90
19928;DHT22;10126;50.876;4.470;2022-07-04T04:03:48;14.70;99.90
19928;DHT22;10126;50.876;4.470;2022-07-04T04:06:07;14.90;99.90
19928;DHT22;10126;50.876;4.470;2022-07-04T04:08:08;15.00;99.90
19928;DHT22;10126;50.876;4.470;2022-07-04T04:10:08;14.90;99.90
19928;DHT22;10126;50.876;4.470;2022-07-04T04:12:09;14.90;99.90
19928;DHT22;10126;50.876;4.470;2022-07-04T04:14:10;14.90;99.90
19928;DHT22;10126;50.876;4.470;2022-07-04T04:16:10;14.90;99.90
19928;DHT22;10126;50.876;4.470;2022-07-04T04:18:11;15.00;99.90
19928;DHT22;10126;50.876;4.470;2022-07-04T04:20:11;15.10;99.90
19928;DHT22;10126;50.876;4.470;2022-07-04T04:22:12;15.20;99.90
19928;DHT22;10126;50.876;4.470;2022-07-04T04:24:13;15.10;99.90
19928;DHT22;10126;50.876;4.470;2022-07-04T04:26:13;15.00;99.90
19928;DHT22;10126;50.876;4.470;2022-07-04T04:28:14;15.10;99.90
19928;DHT22;10126;50.876;4.470;2022-07-04T04:30:15;15.20;99.90
19928;DHT22;10126;50.876;4.470;2022-07-04T04:32:15;15.20;99.90
19928;DHT22;10126;50.876;4.470;2022-07-04T04:34:16;15.20;99.90
19928;DHT22;10126;50.876;4.470;2022-07-04T04:36:17;15.10;99.90
19928;DHT22;10126;50.876;4.470;2022-07-04T04:38:17;15.10;99.90
19928;DHT22;10126;50.876;4.470;2022-07-04T04:40:18;15.20;99.90
19928;DHT22;10126;50.876;4.470;2022-07-04T04:42:19;16.00;99.90
19928;DHT22;10126;50.876;4.470;2022-07-04T04:44:19;17.20;99.90
19928;DHT22;10126;50.876;4.470;2022-07-04T04:46:20;18.90;99.90
19928;DHT22;10126;50.876;4.470;2022-07-04T04:48:21;20.50;99.90
19928;DHT22;10126;50.876;4.470;2022-07-04T04:50:22;21.60;99.90
19928;DHT22;10126;50.876;4.470;2022-07-04T04:52:23;22.60;99.90
19928;DHT22;10126;50.876;4.470;2022-07-04T04:54:23;23.60;99.90
19928;DHT22;10126;50.876;4.470;2022-07-04T04:56:24;24.60;99.90
19928;DHT22;10126;50.876;4.470;2022-07-04T04:58:27;25.00;99.90
19928;DHT22;10126;50.876;4.470;2022-07-04T05:00:28;25.50;99.90
19928;DHT22;10126;50.876;4.470;2022-07-04T05:02:28;26.30;99.90
19928;DHT22;10126;50.876;4.470;2022-07-04T05:04:29;26.80;99.90
19928;DHT22;10126;50.876;4.470;2022-07-04T05:06:30;27.00;99.90
19928;DHT22;10126;50.876;4.470;2022-07-04T05:08:30;27.20;99.90
19928;DHT22;10126;50.876;4.470;2022-07-04T05:10:31;27.60;99.90
19928;DHT22;10126;50.876;4.470;2022-07-04T05:12:32;27.60;99.90
19928;DHT22;10126;50.876;4.470;2022-07-04T05:14:32;28.00;99.90
19928;DHT22;10126;50.876;4.470;2022-07-04T05:16:33;28.70;99.90
19928;DHT22;10126;50.876;4.470;2022-07-04T05:18:34;29.30;99.90
19928;DHT22;10126;50.876;4.470;2022-07-04T05:20:35;29.40;99.90
19928;DHT22;10126;50.876;4.470;2022-07-04T05:22:35;30.00;99.90
19928;DHT22;10126;50.876;4.470;2022-07-04T05:24:36;30.10;99.90
19928;DHT22;10126;50.876;4.470;2022-07-04T05:26:40;29.80;99.90
19928;DHT22;10126;50.876;4.470;2022-07-04T05:28:41;29.90;99.90
19928;DHT22;10126;50.876;4.470;2022-07-04T05:30:42;29.50;99.90
19928;DHT22;10126;50.876;4.470;2022-07-04T05:32:42;29.50;99.90
19928;DHT22;10126;50.876;4.470;2022-07-04T05:34:43;29.80;99.90
19928;DHT22;10126;50.876;4.470;2022-07-04T05:36:43;30.00;99.90
19928;DHT22;10126;50.876;4.470;2022-07-04T05:38:44;30.60;99.90
19928;DHT22;10126;50.876;4.470;2022-07-04T05:40:45;31.00;99.90
19928;DHT22;10126;50.876;4.470;2022-07-04T05:42:45;31.20;99.90
19928;DHT22;10126;50.876;4.470;2022-07-04T05:44:46;31.20;99.90
19928;DHT22;10126;50.876;4.470;2022-07-04T05:46:47;30.90;99.90
19928;DHT22;10126;50.876;4.470;2022-07-04T05:48:47;31.40;99.90
19928;DHT22;10126;50.876;4.470;2022-07-04T05:50:48;31.50;99.90
19928;DHT22;10126;50.876;4.470;2022-07-04T05:52:51;31.70;99.90
19928;DHT22;10126;50.876;4.470;2022-07-04T05:54:52;32.10;99.90
19928;DHT22;10126;50.876;4.470;2022-07-04T05:56:53;32.70;99.20
19928;DHT22;10126;50.876;4.470;2022-07-04T05:58:53;32.70;98.70
19928;DHT22;10126;50.876;4.470;2022-07-04T06:00:54;33.10;97.70
19928;DHT22;10126;50.876;4.470;2022-07-04T06:03:03;33.50;96.80
19928;DHT22;10126;50.876;4.470;2022-07-04T06:05:04;33.80;95.80
19928;DHT22;10126;50.876;4.470;2022-07-04T06:07:05;33.50;95.20
19928;DHT22;10126;50.876;4.470;2022-07-04T06:09:06;33.10;95.00
19928;DHT22;10126;50.876;4.470;2022-07-04T06:11:09;32.80;95.20
19928;DHT22;10126;50.876;4.470;2022-07-04T06:13:30;33.10;94.70
19928;DHT22;10126;50.876;4.470;2022-07-04T06:15:31;33.40;94.20
19928;DHT22;10126;50.876;4.470;2022-07-04T06:17:32;33.90;93.40
19928;DHT22;10126;50.876;4.470;2022-07-04T06:19:33;34.20;92.90
19928;DHT22;10126;50.876;4.470;2022-07-04T06:21:33;34.80;91.90
19928;DHT22;10126;50.876;4.470;2022-07-04T06:23:35;34.80;91.20
19928;DHT22;10126;50.876;4.470;2022-07-04T06:25:35;35.00;89.80
19928;DHT22;10126;50.876;4.470;2022-07-04T06:27:36;35.30;88.70
19928;DHT22;10126;50.876;4.470;2022-07-04T06:29:37;34.90;88.00
19928;DHT22;10126;50.876;4.470;2022-07-04T06:31:37;34.90;86.90
19928;DHT22;10126;50.876;4.470;2022-07-04T06:33:38;34.50;84.90
19928;DHT22;10126;50.876;4.470;2022-07-04T06:35:57;34.50;85.80
19928;DHT22;10126;50.876;4.470;2022-07-04T06:37:59;35.10;85.20
19928;DHT22;10126;50.876;4.470;2022-07-04T06:39:59;35.50;84.20
19928;DHT22;10126;50.876;4.470;2022-07-04T06:42:00;35.90;81.80
19928;DHT22;10126;50.876;4.470;2022-07-04T06:44:01;36.20;80.40
19928;DHT22;10126;50.876;4.470;2022-07-04T06:46:01;36.30;80.20
19928;DHT22;10126;50.876;4.470;2022-07-04T06:48:04;36.30;78.60
19928;DHT22;10126;50.876;4.470;2022-07-04T06:50:05;35.70;80.00
19928;DHT22;10126;50.876;4.470;2022-07-04T06:52:06;35.70;79.20
19928;DHT22;10126;50.876;4.470;2022-07-04T06:54:07;34.90;80.80
19928;DHT22;10126;50.876;4.470;2022-07-04T06:56:08;35.10;80.20
19928;DHT22;10126;50.876;4.470;2022-07-04T06:58:09;35.40;79.40
19928;DHT22;10126;50.876;4.470;2022-07-04T07:00:10;36.30;78.20
19928;DHT22;10126;50.876;4.470;2022-07-04T07:02:11;36.50;77.40
19928;DHT22;10126;50.876;4.470;2022-07-04T07:04:11;37.20;75.70
19928;DHT22;10126;50.876;4.470;2022-07-04T07:06:12;37.00;73.70
19928;DHT22;10126;50.876;4.470;2022-07-04T07:08:13;36.90;74.70
19928;DHT22;10126;50.876;4.470;2022-07-04T07:10:13;37.20;73.60
19928;DHT22;10126;50.876;4.470;2022-07-04T07:12:14;36.90;72.00
19928;DHT22;10126;50.876;4.470;2022-07-04T07:14:15;36.70;73.40
19928;DHT22;10126;50.876;4.470;2022-07-04T07:16:15;36.60;72.10
19928;DHT22;10126;50.876;4.470;2022-07-04T07:18:16;36.40;73.10
19928;DHT22;10126;50.876;4.470;2022-07-04T07:20:17;36.70;73.20
19928;DHT22;10126;50.876;4.470;2022-07-04T07:22:18;35.80;72.70
19928;DHT22;10126;50.876;4.470;2022-07-04T07:24:18;35.50;73.70
19928;DHT22;10126;50.876;4.470;2022-07-04T07:26:19;35.60;74.40
19928;DHT22;10126;50.876;4.470;2022-07-04T07:28:19;36.60;72.40
19928;DHT22;10126;50.876;4.470;2022-07-04T07:30:20;37.00;71.50
19928;DHT22;10126;50.876;4.470;2022-07-04T07:32:21;36.80;70.30
19928;DHT22;10126;50.876;4.470;2022-07-04T07:34:22;36.20;72.40
19928;DHT22;10126;50.876;4.470;2022-07-04T07:36:22;36.40;72.00
19928;DHT22;10126;50.876;4.470;2022-07-04T07:38:23;36.50;70.00
19928;DHT22;10126;50.876;4.470;2022-07-04T07:40:24;36.70;70.80
19928;DHT22;10126;50.876;4.470;2022-07-04T07:42:26;37.20;69.70
19928;DHT22;10126;50.876;4.470;2022-07-04T07:44:27;37.20;69.20
19928;DHT22;10126;50.876;4.470;2022-07-04T07:46:27;37.70;67.50
19928;DHT22;10126;50.876;4.470;2022-07-04T07:48:28;36.90;67.40
19928;DHT22;10126;50.876;4.470;2022-07-04T07:50:29;36.40;67.40
19928;DHT22;10126;50.876;4.470;2022-07-04T07:52:30;35.80;69.00
19928;DHT22;10126;50.876;4.470;2022-07-04T07:54:31;36.40;65.80
19928;DHT22;10126;50.876;4.470;2022-07-04T07:56:31;36.70;66.10
19928;DHT22;10126;50.876;4.470;2022-07-04T07:58:32;36.00;67.10
19928;DHT22;10126;50.876;4.470;2022-07-04T08:00:33;36.30;68.10
19928;DHT22;10126;50.876;4.470;2022-07-04T08:02:34;35.70;67.50
19928;DHT22;10126;50.876;4.470;2022-07-04T08:04:53;36.20;67.60
19928;DHT22;10126;50.876;4.470;2022-07-04T08:06:53;36.20;65.80
19928;DHT22;10126;50.876;4.470;2022-07-04T08:08:54;37.00;64.50
19928;DHT22;10126;50.876;4.470;2022-07-04T08:10:55;36.60;63.20
19928;DHT22;10126;50.876;4.470;2022-07-04T08:12:55;37.00;64.80
19928;DHT22;10126;50.876;4.470;2022-07-04T08:14:56;37.60;64.00
19928;DHT22;10126;50.876;4.470;2022-07-04T08:16:58;37.70;63.20
19928;DHT22;10126;50.876;4.470;2022-07-04T08:18:59;37.60;61.70
19928;DHT22;10126;50.876;4.470;2022-07-04T08:21:00;37.00;63.80
19928;DHT22;10126;50.876;4.470;2022-07-04T08:23:01;37.80;62.50
19928;DHT22;10126;50.876;4.470;2022-07-04T08:25:01;38.00;62.20
19928;DHT22;10126;50.876;4.470;2022-07-04T08:27:02;37.90;60.80
19928;DHT22;10126;50.876;4.470;2022-07-04T08:29:03;37.40;61.60
19928;DHT22;10126;50.876;4.470;2022-07-04T08:31:03;37.70;61.60
19928;DHT22;10126;50.876;4.470;2022-07-04T08:33:04;38.20;59.80
19928;DHT22;10126;50.876;4.470;2022-07-04T08:35:05;38.70;59.30
19928;DHT22;10126;50.876;4.470;2022-07-04T08:37:06;38.60;59.30
19928;DHT22;10126;50.876;4.470;2022-07-04T08:39:07;37.50;60.50
19928;DHT22;10126;50.876;4.470;2022-07-04T08:41:07;37.90;59.20
19928;DHT22;10126;50.876;4.470;2022-07-04T08:43:13;37.20;59.00
19928;DHT22;10126;50.876;4.470;2022-07-04T08:45:15;37.60;59.00
19928;DHT22;10126;50.876;4.470;2022-07-04T08:47:23;37.50;60.00
19928;DHT22;10126;50.876;4.470;2022-07-04T08:49:29;37.90;59.10
19928;DHT22;10126;50.876;4.470;2022-07-04T08:53:50;37.90;59.00
19928;DHT22;10126;50.876;4.470;2022-07-04T08:55:53;36.70;59.70
19928;DHT22;10126;50.876;4.470;2022-07-04T08:58:12;36.10;61.40
19928;DHT22;10126;50.876;4.470;2022-07-04T09:00:32;36.40;60.20
19928;DHT22;10126;50.876;4.470;2022-07-04T09:02:34;36.70;60.60
19928;DHT22;10126;50.876;4.470;2022-07-04T09:04:35;36.90;59.90
19928;DHT22;10126;50.876;4.470;2022-07-04T09:06:36;36.50;61.00
19928;DHT22;10126;50.876;4.470;2022-07-04T09:08:40;37.00;60.30
19928;DHT22;10126;50.876;4.470;2022-07-04T09:10:41;38.50;59.80
19928;DHT22;10126;50.876;4.470;2022-07-04T09:12:41;37.80;58.70
19928;DHT22;10126;50.876;4.470;2022-07-04T09:14:42;37.90;60.30
19928;DHT22;10126;50.876;4.470;2022-07-04T09:16:43;37.30;59.10
19928;DHT22;10126;50.876;4.470;2022-07-04T09:18:45;37.00;59.50
19928;DHT22;10126;50.876;4.470;2022-07-04T09:20:46;35.00;62.50
19928;DHT22;10126;50.876;4.470;2022-07-04T09:22:47;34.10;64.40
19928;DHT22;10126;50.876;4.470;2022-07-04T09:24:51;33.90;64.30
19928;DHT22;10126;50.876;4.470;2022-07-04T09:26:52;34.10;64.70
19928;DHT22;10126;50.876;4.470;2022-07-04T09:28:55;34.80;63.50
19928;DHT22;10126;50.876;4.470;2022-07-04T09:30:59;35.10;61.20
19928;DHT22;10126;50.876;4.470;2022-07-04T09:32:59;35.00;62.60
19928;DHT22;10126;50.876;4.470;2022-07-04T09:35:00;35.50;62.90
19928;DHT22;10126;50.876;4.470;2022-07-04T09:37:01;34.00;63.70
19928;DHT22;10126;50.876;4.470;2022-07-04T09:39:16;33.30;65.10
19928;DHT22;10126;50.876;4.470;2022-07-04T09:41:18;33.70;64.90
19928;DHT22;10126;50.876;4.470;2022-07-04T09:43:25;33.30;65.70
19928;DHT22;10126;50.876;4.470;2022-07-04T09:45:26;33.80;65.60
19928;DHT22;10126;50.876;4.470;2022-07-04T09:47:29;33.90;63.50
19928;DHT22;10126;50.876;4.470;2022-07-04T09:49:30;33.60;65.30
19928;DHT22;10126;50.876;4.470;2022-07-04T09:51:41;34.10;65.60
19928;DHT22;10126;50.876;4.470;2022-07-04T09:53:41;34.50;63.00
19928;DHT22;10126;50.876;4.470;2022-07-04T09:55:43;36.20;60.40
19928;DHT22;10126;50.876;4.470;2022-07-04T09:57:46;36.00;62.30
19928;DHT22;10126;50.876;4.470;2022-07-04T09:59:46;36.60;60.40
19928;DHT22;10126;50.876;4.470;2022-07-04T10:01:47;36.40;61.40
19928;DHT22;10126;50.876;4.470;2022-07-04T10:03:51;36.70;60.00
19928;DHT22;10126;50.876;4.470;2022-07-04T10:06:05;36.50;60.60
19928;DHT22;10126;50.876;4.470;2022-07-04T10:08:06;37.00;60.10
19928;DHT22;10126;50.876;4.470;2022-07-04T10:12:28;37.00;61.60
19928;DHT22;10126;50.876;4.470;2022-07-04T10:14:29;38.00;59.30
19928;DHT22;10126;50.876;4.470;2022-07-04T10:16:31;38.40;59.50
19928;DHT22;10126;50.876;4.470;2022-07-04T10:18:32;36.60;59.80
19928;DHT22;10126;50.876;4.470;2022-07-04T10:20:33;34.80;63.50
19928;DHT22;10126;50.876;4.470;2022-07-04T10:22:34;34.10;63.70
19928;DHT22;10126;50.876;4.470;2022-07-04T10:24:36;33.80;63.80
19928;DHT22;10126;50.876;4.470;2022-07-04T10:26:37;32.80;65.20
19928;DHT22;10126;50.876;4.470;2022-07-04T10:28:40;33.80;65.50
19928;DHT22;10126;50.876;4.470;2022-07-04T10:30:42;33.70;65.10
19928;DHT22;10126;50.876;4.470;2022-07-04T10:32:44;32.90;65.30
19928;DHT22;10126;50.876;4.470;2022-07-04T10:34:46;32.90;64.90
19928;DHT22;10126;50.876;4.470;2022-07-04T10:36:52;31.90;67.40
19928;DHT22;10126;50.876;4.470;2022-07-04T10:41:00;30.60;71.20
19928;DHT22;10126;50.876;4.470;2022-07-04T10:43:01;30.40;69.60
19928;DHT22;10126;50.876;4.470;2022-07-04T10:45:02;30.40;72.20
19928;DHT22;10126;50.876;4.470;2022-07-04T10:47:04;29.20;77.60
19928;DHT22;10126;50.876;4.470;2022-07-04T10:49:27;28.50;80.20
19928;DHT22;10126;50.876;4.470;2022-07-04T10:53:59;27.90;82.20
19928;DHT22;10126;50.876;4.470;2022-07-04T10:58:42;27.80;84.30
19928;DHT22;10126;50.876;4.470;2022-07-04T11:01:16;28.00;80.80
19928;DHT22;10126;50.876;4.470;2022-07-04T11:03:17;28.50;81.80
19928;DHT22;10126;50.876;4.470;2022-07-04T11:05:30;27.80;84.40
19928;DHT22;10126;50.876;4.470;2022-07-04T11:09:36;27.50;86.90
19928;DHT22;10126;50.876;4.470;2022-07-04T11:11:55;27.40;89.10
19928;DHT22;10126;50.876;4.470;2022-07-04T11:16:54;26.80;91.30
19928;DHT22;10126;50.876;4.470;2022-07-04T11:18:54;26.70;91.10
19928;DHT22;10126;50.876;4.470;2022-07-04T11:20:55;26.80;91.40
19928;DHT22;10126;50.876;4.470;2022-07-04T11:23:13;26.90;92.30
19928;DHT22;10126;50.876;4.470;2022-07-04T11:25:15;27.30;90.70
19928;DHT22;10126;50.876;4.470;2022-07-04T11:27:16;27.40;91.60
19928;DHT22;10126;50.876;4.470;2022-07-04T11:29:17;27.30;90.70
19928;DHT22;10126;50.876;4.470;2022-07-04T11:31:17;27.20;90.10
19928;DHT22;10126;50.876;4.470;2022-07-04T11:33:36;27.10;90.80
19928;DHT22;10126;50.876;4.470;2022-07-04T11:35:37;26.20;91.90
19928;DHT22;10126;50.876;4.470;2022-07-04T11:37:38;25.90;93.20
19928;DHT22;10126;50.876;4.470;2022-07-04T11:39:39;25.90;93.60
19928;DHT22;10126;50.876;4.470;2022-07-04T11:41:41;26.10;93.70
19928;DHT22;10126;50.876;4.470;2022-07-04T11:44:09;26.00;94.00
19928;DHT22;10126;50.876;4.470;2022-07-04T11:46:28;26.50;92.90
19928;DHT22;10126;50.876;4.470;2022-07-04T11:48:29;26.60;93.10
19928;DHT22;10126;50.876;4.470;2022-07-04T11:50:30;26.50;92.40
19928;DHT22;10126;50.876;4.470;2022-07-04T11:52:51;26.00;93.40
19928;DHT22;10126;50.876;4.470;2022-07-04T11:54:54;25.70;95.10
19928;DHT22;10126;50.876;4.470;2022-07-04T11:57:12;26.00;93.70
19928;DHT22;10126;50.876;4.470;2022-07-04T11:59:15;26.60;93.50
19928;DHT22;10126;50.876;4.470;2022-07-04T12:01:27;27.20;92.30
19928;DHT22;10126;50.876;4.470;2022-07-04T12:03:28;26.30;93.60
19928;DHT22;10126;50.876;4.470;2022-07-04T12:05:28;26.00;93.10
19928;DHT22;10126;50.876;4.470;2022-07-04T12:07:31;25.80;93.20
19928;DHT22;10126;50.876;4.470;2022-07-04T12:09:35;25.70;94.80
19928;DHT22;10126;50.876;4.470;2022-07-04T12:11:57;26.00;94.10
19928;DHT22;10126;50.876;4.470;2022-07-04T12:14:12;26.30;93.90
19928;DHT22;10126;50.876;4.470;2022-07-04T12:16:13;26.70;93.20
19928;DHT22;10126;50.876;4.470;2022-07-04T12:18:19;27.10;93.70
19928;DHT22;10126;50.876;4.470;2022-07-04T12:20:23;27.00;93.40
19928;DHT22;10126;50.876;4.470;2022-07-04T12:22:32;26.60;93.50
19928;DHT22;10126;50.876;4.470;2022-07-04T12:24:42;26.30;93.60
19928;DHT22;10126;50.876;4.470;2022-07-04T12:26:47;26.70;93.40
19928;DHT22;10126;50.876;4.470;2022-07-04T12:28:48;27.00;93.20
19928;DHT22;10126;50.876;4.470;2022-07-04T12:30:57;26.80;92.10
19928;DHT22;10126;50.876;4.470;2022-07-04T12:33:00;26.40;93.20
19928;DHT22;10126;50.876;4.470;2022-07-04T12:35:01;26.40;93.30
19928;DHT22;10126;50.876;4.470;2022-07-04T12:37:07;26.60;93.00
19928;DHT22;10126;50.876;4.470;2022-07-04T12:39:08;26.90;93.20
19928;DHT22;10126;50.876;4.470;2022-07-04T12:41:11;27.10;94.00
19928;DHT22;10126;50.876;4.470;2022-07-04T12:43:12;26.40;94.10
19928;DHT22;10126;50.876;4.470;2022-07-04T12:45:13;26.30;94.70
19928;DHT22;10126;50.876;4.470;2022-07-04T12:47:14;26.30;93.80
19928;DHT22;10126;50.876;4.470;2022-07-04T12:49:16;26.30;93.90
19928;DHT22;10126;50.876;4.470;2022-07-04T12:51:20;26.20;94.40
19928;DHT22;10126;50.876;4.470;2022-07-04T12:53:21;26.30;93.60
19928;DHT22;10126;50.876;4.470;2022-07-04T12:55:22;26.40;92.40
19928;DHT22;10126;50.876;4.470;2022-07-04T12:57:23;26.40;92.80
19928;DHT22;10126;50.876;4.470;2022-07-04T12:59:23;26.50;93.30
19928;DHT22;10126;50.876;4.470;2022-07-04T13:01:24;26.50;92.70
19928;DHT22;10126;50.876;4.470;2022-07-04T13:03:25;26.60;93.50
19928;DHT22;10126;50.876;4.470;2022-07-04T13:05:25;27.00;93.80
19928;DHT22;10126;50.876;4.470;2022-07-04T13:07:27;26.80;92.10
19928;DHT22;10126;50.876;4.470;2022-07-04T13:09:27;26.70;92.20